Time;durP1;ratioP1;P1;durP2;ratioP2;P2;SDS_P1;SDS_P2;PMS_P1;PMS_P2;Temp;Humidity;BMP_temperature;BMP_pressure;BME280_temperature;BME280_humidity;BME280_pressure;Samples;Min_cycle;Max_cycle;Signal;HPM_P1;HPM_P2
2023/01/21 00:13:04;;;;;;;18.35;11.68;;;;;;;0.21;90.29;101740.00;4994616;28;20041;-58
2023/01/21 00:55:14;;;;;;;18.20;10.80;;;;;;;0.22;89.85;101764.19;4998487;28;20136;-60
2023/01/21 01:14:55;;;;;;;20.55;12.18;;;;;;;0.15;91.05;101783.16;4984805;28;20056;-58
2023/01/21 01:35:45;;;;;;;21.90;12.40;;;;;;;-0.02;90.85;101802.09;4992204;28;20068;-56
2023/01/21 02:01:05;;;;;;;22.48;13.90;;;;;;;0.12;90.66;101793.50;4983182;28;20061;-58
2023/01/21 02:21:27;;;;;;;25.80;15.63;;;;;;;0.21;90.56;101817.69;4998007;28;20379;-59
2023/01/21 02:32:56;;;;;;;26.30;15.13;;;;;;;0.13;90.69;101827.16;4994293;28;20068;-59
2023/01/21 02:44:25;;;;;;;33.65;16.70;;;;;;;0.22;90.58;101827.19;5004644;28;20073;-60
2023/01/21 02:51:46;;;;;;;26.75;15.57;;;;;;;0.23;90.52;101833.25;4983809;28;20061;-60
2023/01/21 02:58:42;;;;;;;27.45;16.30;;;;;;;0.21;90.27;101811.66;5001790;28;20217;-58
2023/01/21 03:18:25;;;;;;;30.58;17.10;;;;;;;0.36;89.97;101840.22;4994735;28;20053;-59
2023/01/21 04:03:35;;;;;;;21.02;13.98;;;;;;;0.47;89.85;101833.31;4986138;28;20521;-59
2023/01/21 04:10:21;;;;;;;22.20;13.68;;;;;;;0.46;89.93;101830.72;4989585;28;20040;-58
2023/01/21 04:34:53;;;;;;;14.50;9.20;;;;;;;0.50;89.90;101842.81;4988878;28;20057;-63
2023/01/21 04:54:35;;;;;;;16.13;8.00;;;;;;;0.62;89.03;101845.41;5000503;28;20628;-60
2023/01/21 05:15:06;;;;;;;14.68;8.50;;;;;;;0.34;89.27;101861.78;4996512;28;20041;-59
2023/01/21 05:35:25;;;;;;;13.32;8.48;;;;;;;0.42;90.67;101884.25;4990591;28;20093;-59
2023/01/21 06:41:50;;;;;;;23.17;14.07;;;;;;;0.54;90.86;101927.47;5009421;28;20584;-63
2023/01/21 07:49:25;;;;;;;;;;;;;;;0.98;89.44;101973.38;5007256;28;20414;-64
2023/01/21 08:05:06;;;;;;;24.90;15.63;;;;;;;0.95;88.72;101970.78;5007546;28;20112;-64
2023/01/21 08:25:25;;;;;;;23.30;14.55;;;;;;;0.95;88.59;101963.88;5003938;28;20188;-63
2023/01/21 08:45:33;;;;;;;25.55;14.57;;;;;;;0.91;89.66;101964.72;5019461;28;20064;-64
2023/01/21 09:35:43;;;;;;;21.10;13.55;;;;;;;1.34;88.45;101977.75;5001840;28;20049;-62
2023/01/21 10:36:45;;;;;;;25.48;14.90;;;;;;;1.90;86.42;101944.84;5007402;28;20061;-61
2023/01/21 10:48:13;;;;;;;27.08;14.98;;;;;;;1.93;85.89;101931.84;5011562;28;20454;-63
2023/01/21 11:47:02;;;;;;;15.52;10.38;;;;;;;2.90;83.78;101865.53;5008927;28;20075;-63
2023/01/21 12:17:02;;;;;;;15.20;9.85;;;;;;;3.03;81.98;101837.69;5001158;28;20121;-62
2023/01/21 12:24:10;;;;;;;12.18;7.55;;;;;;;3.25;83.43;101839.25;5009333;28;20079;-63
2023/01/21 12:26:46;;;;;;;12.38;7.53;;;;;;;3.33;82.46;101833.09;4995828;28;20063;-62
2023/01/21 12:29:24;;;;;;;10.80;7.35;;;;;;;3.45;83.07;101832.97;5023276;28;20123;-63
2023/01/21 12:32:15;;;;;;;9.73;6.75;;;;;;;3.47;81.44;101826.03;5002908;28;20401;-63
2023/01/21 12:34:47;;;;;;;11.18;7.40;;;;;;;3.55;82.29;101816.38;5012024;28;20077;-63
2023/01/21 12:37:23;;;;;;;12.15;6.70;;;;;;;3.59;79.72;101823.25;5001773;28;20057;-63
2023/01/21 12:39:51;;;;;;;11.15;6.80;;;;;;;3.59;79.88;101823.25;5014860;28;20144;-64
2023/01/21 12:42:18;;;;;;;14.55;6.95;;;;;;;3.59;79.63;101831.06;5002767;28;20075;-60
2023/01/21 12:44:48;;;;;;;13.75;6.68;;;;;;;3.65;80.92;101820.63;5018952;28;20049;-63
2023/01/21 12:47:24;;;;;;;10.00;6.15;;;;;;;3.73;81.26;101817.91;5015538;28;20224;-63
2023/01/21 12:49:54;;;;;;;10.75;6.53;;;;;;;3.68;78.88;101814.50;5004559;28;20061;-62
2023/01/21 12:52:29;;;;;;;9.55;5.72;;;;;;;3.62;77.51;101825.84;5017857;28;20135;-62
2023/01/21 12:55:10;;;;;;;10.82;5.68;;;;;;;3.67;79.26;101815.38;4994495;28;20144;-64
2023/01/21 12:57:42;;;;;;;8.73;4.95;;;;;;;3.69;79.33;101816.22;5014643;28;20482;-62
2023/01/21 13:00:19;;;;;;;8.85;5.40;;;;;;;3.64;77.72;101825.81;5014538;28;20156;-62
2023/01/21 13:02:55;;;;;;;9.23;5.50;;;;;;;3.56;77.13;101820.72;4994455;28;20050;-62
2023/01/21 13:05:28;;;;;;;6.53;4.80;;;;;;;3.51;76.49;101822.47;4995193;28;20060;-62
2023/01/21 13:08:21;;;;;;;7.78;4.25;;;;;;;3.57;77.29;101812.03;5017715;28;20057;-62
2023/01/21 13:10:55;;;;;;;9.75;4.28;;;;;;;3.57;78.18;101818.97;5016024;28;20144;-62
2023/01/21 13:13:34;;;;;;;9.50;4.20;;;;;;;3.57;77.79;101806.81;4997016;28;20049;-63
2023/01/21 13:16:06;;;;;;;7.68;4.95;;;;;;;3.52;75.99;101814.66;5007839;23;20144;-77
2023/01/21 13:18:35;;;;;;;8.30;4.57;;;;;;;3.61;78.50;101815.47;5020696;28;20417;-78
2023/01/21 13:21:06;;;;;;;9.88;5.40;;;;;;;3.61;76.81;101807.66;5002603;28;20050;-78
2023/01/21 13:23:45;;;;;;;8.73;5.28;;;;;;;3.51;76.59;101801.66;4979117;28;20046;-78
2023/01/21 13:26:23;;;;;;;8.77;4.47;;;;;;;3.51;76.58;101806.84;5002780;28;20046;-77
2023/01/21 13:29:00;;;;;;;10.65;4.47;;;;;;;3.50;77.13;101805.16;4994992;28;20053;-79
2023/01/21 13:31:39;;;;;;;6.20;4.18;;;;;;;3.47;75.93;101800.84;5021372;28;20069;-78
2023/01/21 13:34:29;;;;;;;9.68;4.35;;;;;;;3.54;76.74;101799.03;4987074;28;20105;-79
2023/01/21 13:37:17;;;;;;;11.02;4.60;;;;;;;3.47;76.64;101782.63;5004528;28;20053;-78
2023/01/21 13:40:25;;;;;;;7.43;4.38;;;;;;;3.48;77.04;101779.13;5016968;28;20483;-77
2023/01/21 13:43:08;;;;;;;7.07;4.80;;;;;;;3.49;77.30;101766.97;5001599;28;20098;-77
2023/01/21 13:45:57;;;;;;;10.90;4.78;;;;;;;3.45;76.92;101763.53;4998674;28;20049;-77
2023/01/21 13:49:19;;;;;;;10.27;4.63;;;;;;;3.55;78.47;101772.97;4998635;28;20076;-79
2023/01/21 13:51:58;;;;;;;8.32;4.25;;;;;;;3.58;76.91;101786.84;4941271;29;20079;-80
2023/01/21 13:54:52;;;;;;;9.65;4.38;;;;;;;3.56;76.41;101789.47;4993955;28;20052;-79
2023/01/21 13:57:40;;;;;;;8.13;4.28;;;;;;;3.48;76.79;101776.53;5008175;28;20057;-79
2023/01/21 14:00:14;;;;;;;6.07;4.18;;;;;;;3.42;76.36;101778.31;5022454;28;20057;-80
2023/01/21 14:03:02;;;;;;;8.90;4.55;;;;;;;3.47;77.60;101790.44;5003809;28;20049;-79
2023/01/21 14:05:39;;;;;;;10.65;4.68;;;;;;;3.53;78.71;101766.94;5008603;28;20104;-78
2023/01/21 14:08:15;;;;;;;9.13;4.35;;;;;;;3.47;76.64;101764.41;4987133;28;20448;-77
2023/01/21 14:10:56;;;;;;;7.22;4.30;;;;;;;3.45;77.56;101747.91;5017893;28;20046;-78
2023/01/21 14:14:05;;;;;;;8.93;4.28;;;;;;;3.47;77.58;101738.38;4987101;28;20076;-78
2023/01/21 14:16:47;;;;;;;7.38;4.38;;;;;;;3.51;77.88;101719.22;5013762;28;20137;-78
2023/01/21 14:19:17;;;;;;;7.25;3.40;;;;;;;3.51;77.12;101700.13;5012740;28;20067;-79
2023/01/21 14:22:03;;;;;;;7.57;4.13;;;;;;;3.42;76.24;101706.34;4983118;28;20379;-78
2023/01/21 14:24:45;;;;;;;;;;;;;;;3.38;76.92;101711.56;5000292;28;20509;-78
2023/01/21 14:27:31;;;;;;;7.63;3.50;;;;;;;3.38;77.61;101729.78;5000302;28;20012;-77
2023/01/21 14:30:52;;;;;;;6.40;3.38;;;;;;;3.36;76.47;101742.81;5022963;28;20108;-76
2023/01/21 14:33:28;;;;;;;4.97;3.15;;;;;;;3.37;77.75;101744.53;4996880;28;20051;-78
2023/01/21 14:35:55;;;;;;;;;;;;;;;3.37;76.76;101751.50;4976913;28;20050;-78
2023/01/21 14:38:48;;;;;;;5.70;3.03;;;;;;;3.44;78.09;101740.13;4979526;28;20056;-80
2023/01/21 14:41:15;;;;;;;6.60;2.70;;;;;;;3.46;77.58;101752.25;5010461;28;20413;-78
2023/01/21 14:43:43;;;;;;;4.90;2.63;;;;;;;3.44;77.12;101748.81;5011725;28;20054;-77
2023/01/21 14:46:24;;;;;;;5.05;2.58;;;;;;;3.48;77.54;101757.44;4995897;28;20112;-78
2023/01/21 14:49:12;;;;;;;3.63;2.05;;;;;;;3.53;75.41;101750.44;5013181;28;20069;-76
2023/01/21 14:51:47;;;;;;;4.53;2.30;;;;;;;3.51;76.60;101760.88;4978021;28;20547;-78
2023/01/21 14:54:17;;;;;;;3.92;1.80;;;;;;;3.47;74.57;101761.81;5005997;28;20437;-77
2023/01/21 14:56:52;;;;;;;4.35;2.10;;;;;;;3.47;75.14;101735.78;5008765;28;20482;-77
2023/01/21 14:59:36;;;;;;;5.53;1.90;;;;;;;3.48;75.46;101734.03;4976628;28;20054;-77
2023/01/21 15:02:22;;;;;;;4.30;1.92;;;;;;;3.52;76.77;101720.94;4990044;28;20056;-77
2023/01/21 15:05:14;;;;;;;3.85;2.03;;;;;;;3.53;75.75;101706.19;5022238;28;20152;-77
2023/01/21 15:07:44;;;;;;;5.88;2.17;;;;;;;3.52;76.28;101717.50;5009811;28;20482;-76
2023/01/21 15:10:20;;;;;;;5.65;2.10;;;;;;;3.45;75.22;101714.06;4994893;28;20049;-78
2023/01/21 15:13:00;;;;;;;7.43;2.38;;;;;;;3.33;74.97;101715.97;5011956;28;20084;-77
2023/01/21 15:15:33;;;;;;;4.95;2.05;;;;;;;3.28;77.28;101709.06;5009760;28;20059;-76
2023/01/21 15:18:08;;;;;;;4.07;1.90;;;;;;;3.37;78.06;101702.88;4993871;28;20050;-78
2023/01/21 15:20:41;;;;;;;6.47;2.25;;;;;;;3.34;77.08;101700.34;5001638;28;20057;-77
2023/01/21 15:23:28;;;;;;;6.15;1.88;;;;;;;3.23;77.99;101699.59;4996589;28;20049;-77
2023/01/21 15:26:07;;;;;;;;;;;;;;;3.25;79.21;101696.09;5006151;28;20486;-79
2023/01/21 15:28:39;;;;;;;5.00;2.08;;;;;;;3.15;79.03;101680.59;5022916;28;19920;-79
2023/01/21 15:31:09;;;;;;;6.50;2.13;;;;;;;3.15;80.24;101688.41;5006382;28;20050;-79
2023/01/21 15:33:41;;;;;;;4.20;2.00;;;;;;;3.08;81.14;101689.38;4999346;28;20054;-79
2023/01/21 15:36:29;;;;;;;6.68;2.00;;;;;;;3.03;82.08;101697.22;4998254;28;20061;-79
2023/01/21 15:39:02;;;;;;;7.13;2.42;;;;;;;3.00;82.80;101698.09;4993342;28;20159;-78
2023/01/21 15:41:51;;;;;;;5.80;2.22;;;;;;;2.90;83.79;101701.69;4979329;28;20049;-77
2023/01/21 15:44:37;;;;;;;5.07;1.90;;;;;;;2.76;85.03;101703.56;4999050;28;20418;-78
2023/01/21 15:47:34;;;;;;;3.70;1.80;;;;;;;2.72;85.82;101696.66;5010981;28;20061;-78
2023/01/21 15:50:18;;;;;;;4.93;2.40;;;;;;;2.70;86.25;101709.69;5025411;28;20053;-77
2023/01/21 15:53:03;;;;;;;7.28;2.35;;;;;;;2.62;87.07;101689.84;5023133;28;20108;-79
2023/01/21 15:55:50;;;;;;;5.70;2.45;;;;;;;2.60;87.41;101705.41;5008200;28;20140;-76
2023/01/21 15:58:31;;;;;;;;;;;;;;;2.69;87.49;101717.47;4996680;28;20054;-78
2023/01/21 16:01:05;;;;;;;3.80;2.10;;;;;;;2.62;88.31;101702.84;5013762;28;19921;-76
2023/01/21 16:03:41;;;;;;;4.82;2.25;;;;;;;2.65;88.14;101701.03;4993798;28;20041;-78
2023/01/21 16:06:27;;;;;;;3.90;1.83;;;;;;;2.60;88.74;101704.56;5013854;28;20410;-77
2023/01/21 16:09:04;;;;;;;5.37;2.20;;;;;;;2.41;90.05;101704.72;4997324;28;20050;-79
2023/01/21 16:12:19;;;;;;;5.80;2.20;;;;;;;2.32;91.19;101709.13;5034771;28;20166;-77
2023/01/21 16:15:38;;;;;;;7.10;2.38;;;;;;;2.25;92.06;101704.00;4985419;28;20064;-76
2023/01/21 16:18:12;;;;;;;4.47;2.20;;;;;;;2.30;91.83;101701.34;5000737;28;20064;-78
2023/01/21 16:20:44;;;;;;;4.68;2.03;;;;;;;2.40;91.46;101702.16;5016208;28;20141;-78
2023/01/21 16:23:13;;;;;;;9.02;2.92;;;;;;;2.39;91.62;101701.28;5019170;28;20041;-77
2023/01/21 16:26:18;;;;;;;4.43;2.08;;;;;;;2.24;93.00;101701.38;5003830;28;20049;-77
2023/01/21 16:28:50;;;;;;;7.32;2.72;;;;;;;2.21;93.50;101707.47;5002533;28;20124;-77
2023/01/21 16:31:17;;;;;;;4.32;2.60;;;;;;;2.02;94.48;101696.34;5002101;28;20107;-77
2023/01/21 16:33:45;;;;;;;5.15;2.28;;;;;;;2.07;94.45;101703.22;5003665;28;20131;-78
2023/01/21 16:36:15;;;;;;;7.35;2.60;;;;;;;2.02;95.03;101696.34;4978303;28;20050;-78
2023/01/21 16:38:44;;;;;;;12.60;2.70;;;;;;;2.06;94.95;101701.50;4979175;28;20076;-78
2023/01/21 16:41:15;;;;;;;7.00;2.63;;;;;;;2.10;95.13;101717.06;4993254;28;20046;-78
2023/01/21 16:43:45;;;;;;;5.32;2.55;;;;;;;2.12;95.01;101717.09;5016345;28;20076;-77
2023/01/21 16:46:35;;;;;;;7.80;2.65;;;;;;;2.07;95.66;101727.47;5015344;28;20050;-77
2023/01/21 16:49:12;;;;;;;8.55;3.45;;;;;;;2.01;96.11;101722.31;5014540;28;20559;-78
2023/01/21 16:51:44;;;;;;;5.53;2.72;;;;;;;1.96;96.16;101721.50;5004372;28;20453;-78
2023/01/21 16:54:21;;;;;;;6.20;2.83;;;;;;;1.98;96.40;101731.00;5007162;28;20052;-78
2023/01/21 16:57:03;;;;;;;8.38;3.05;;;;;;;1.99;96.12;101729.28;4992077;28;20058;-78
2023/01/21 16:59:43;;;;;;;5.88;2.47;;;;;;;1.85;97.77;101702.53;4981237;28;20228;-78
2023/01/21 17:02:30;;;;;;;4.50;2.35;;;;;;;1.75;98.17;101712.94;4991452;28;20100;-79
2023/01/21 17:05:00;;;;;;;7.90;3.20;;;;;;;1.80;98.54;101719.84;5007951;28;20399;-79
2023/01/21 17:07:31;;;;;;;7.47;2.63;;;;;;;1.85;98.49;101716.38;4991135;28;20049;-79
2023/01/21 17:10:06;;;;;;;4.68;2.22;;;;;;;1.85;98.83;101712.91;4999986;28;20057;-79
2023/01/21 17:12:33;;;;;;;6.63;2.20;;;;;;;1.91;98.39;101718.06;4989542;28;20060;-79
2023/01/21 17:15:18;;;;;;;4.43;2.50;;;;;;;1.95;97.89;101715.44;4986855;28;20159;-79
2023/01/21 17:17:46;;;;;;;7.28;2.53;;;;;;;2.08;96.81;101711.03;4984701;28;20053;-79
2023/01/21 17:42:46;;;;;;;6.22;2.67;;;;;;;1.87;98.72;101734.53;5015519;28;20043;-78
2023/01/21 17:49:32;;;;;;;5.95;2.47;;;;;;;1.95;98.39;101732.75;5021875;28;20132;-78
2023/01/21 17:51:59;;;;;;;5.95;2.33;;;;;;;1.97;98.21;101738.78;5008871;28;20108;-79
2023/01/21 20:13:12;;;;;;;8.07;3.15;;;;;;;1.97;98.77;101814.09;5007001;28;20570;-77
2023/01/21 20:15:41;;;;;;;8.23;2.80;;;;;;;2.00;98.16;101809.75;4982868;28;20146;-78
2023/01/21 20:18:21;;;;;;;9.05;3.25;;;;;;;1.99;99.43;101813.25;4984834;28;20060;-78
2023/01/21 20:38:33;;;;;;;7.80;2.50;;;;;;;2.17;97.86;101824.41;5004936;28;20033;-78
2023/01/21 21:11:56;;;;;;;6.13;2.92;;;;;;;2.29;97.93;101858.09;5012595;28;20049;-78
2023/01/21 21:23:14;;;;;;;5.97;2.55;;;;;;;2.34;97.52;101858.94;4988293;28;20634;-77
2023/01/21 21:26:34;;;;;;;7.25;3.15;;;;;;;2.31;97.66;101864.19;4999315;28;20355;-77
2023/01/21 22:18:44;;;;;;;6.68;3.22;;;;;;;2.27;98.54;101894.50;5010709;28;20406;-77
2023/01/21 22:25:52;;;;;;;5.75;2.75;;;;;;;2.27;98.95;101902.28;5012238;28;20053;-78
2023/01/21 22:40:54;;;;;;;4.45;2.65;;;;;;;2.35;98.24;101915.28;5006704;28;20061;-78
2023/01/21 22:52:11;;;;;;;4.45;2.65;;;;;;;2.19;99.79;101919.66;5009186;28;20466;-76
